AirNav   Pilot Hours Calculator
 
 717 users online  

NH73 Meader's Heliport
Center Ossipee, New Hampshire, USA

GOING TO CENTER OSSIPEE?


FAA INFORMATION EFFECTIVE 02 JANUARY 2020

Location

FAA Identifier: NH73
Lat/Long: 43-47-34.2700N 071-10-38.2480W
43-47.571167N 071-10.637467W
43.7928528,-71.1772911
(estimated)
Elevation: 420 ft. / 128 m (estimated)
Variation: 17W (1990)
From city: 3 miles N of CENTER OSSIPEE, NH
Time zone: UTC -5 (UTC -4 during Daylight Saving Time)
Zip code: 03814

Heliport Operations

Heliport use: Private use. Permission required prior to landing
Activation date: 01/1993
Control tower: no
ARTCC: BOSTON CENTER
FSS: BANGOR FLIGHT SERVICE STATION
Attendance: UNATNDD
Wind indicator: yes
Segmented circle: no

Heliport Communications

WX ASOS at IZG (15 nm NE): 135.775 (207-935-2882)
WX AWOS-3PT at LCI (17 nm SW): 133.525 (603-524-5134)

Nearby radio navigation aids

VOR radial/distance  VOR name  Freq  Var
ENEr329/32.9KENNEBUNK VOR/DME117.1017W
CONr042/38.5CONCORD VOR/DME112.9015W

 
NDB name  Hdg/Dist  Freq  Var  ID
ROLLINS352/37.626016WESG . ... --.

Heliport Services

Runway Information

Helipad H1

Dimensions: 50 x 50 ft. / 15 x 15 m
Surface: asphalt/turf
Traffic pattern: leftleft

Heliport Ownership and Management from official FAA records

Ownership: Privately-owned
Owner: DONALD N MEADER
RT 16 BOX 267
CTR OSSIPEE, NH 03814
Phone 603-539-7772
Manager: DONALD N MEADER
RT 16 BOX 267
CTR OSSIPEE, NH 03814
Phone 603-539-7772

Heliport Operational Statistics

Aircraft based on the field: 1
Helicopters: 1
    

Additional Remarks

FOR CD CTC BOSTON ARTCC AT 603-879-6859.

Instrument Procedures

There are no published instrument procedures at NH73.

Some nearby airports with instrument procedures:

KIZG - Eastern Slopes Regional Airport (15 nm NE)
KLCI - Laconia Municipal Airport (17 nm SW)
KSFM - Sanford Seacoast Regional Airport (31 nm SE)
KDAW - Skyhaven Airport (32 nm S)
B19 - Biddeford Municipal Airport (36 nm SE)
 
Loc | Ops | Rwys | IFR | FBO | Links
Com | Nav | Svcs | Stats | Notes

Auburn-Lewiston Municipal Airport
 
Area around NH73 (Meader's Heliport)
 
Road maps at: MapQuest Bing Google
 
Aerial photo
No photo
 
Sectional chart

 
Airport distance calculator
Flying to Meader's Heliport? Find the distance to fly.

From to NH73

Sunrise and sunset
Times for 26-Jan-2020
 Local
(UTC-5)
 Zulu
(UTC)
Morning civil twilight06:3811:38
Sunrise07:0912:09
Sunset16:4621:46
Evening civil twilight17:1722:17

Current date and time
Zulu (UTC)  26-Jan-2020 06:21:38
Local (UTC-5)  26-Jan-2020 01:21:38
 
METAR
KCWN 
13nm N 
260555Z 17007G14KT 10SM BKN200 03/M09 A3002 RMK AO2A SLP086 T00301088 10100 20058 52006
KIZG 
15nm NE 
260604Z AUTO 33006KT 3SM UP BR OVC012 01/01 A2977 RMK AO2 P0001 T00110006
KLCI 
17nm SW 
260556Z AUTO VRB05KT 3SM UP BR OVC007 02/02 A2971 RMK AO2 RAE53UPB16E22B53 SLP067 P0001 60045 T00220017 10022 20017 56024 FZRANO
K1P1 
25nm W 
260555Z AUTO 00000KT 2SM DZ OVC015 02/02 A2972 RMK AO2 LTG DSNT SE AND S P0002 60034 T00200015 10023 20015
TAF
KHIE 
38nm NW 
260549Z 2606/2706 VRB05KT 3SM -SNRA SCT015 OVC035 WS020/13040KT FM260900 VRB04KT 6SM -SHRA BR BKN015 OVC025 FM261700 26005KT 6SM -SHSN OVC025
KCON 
38nm S 
260540Z 2606/2706 VRB04KT 2SM -SHRA BR OVC008 FM260800 VRB04KT 1SM BR SCT003 OVC005 FM261100 VRB04KT 6SM BR SCT007 BKN010 FM261400 27006G15KT P6SM FEW100
KPWM 
39nm E 
260540Z 2606/2706 09010G16KT 3SM RA BR BKN006 OVC010 WS020/16040KT FM260800 VRB05KT 2SM BR BKN003 OVC006 FM261700 25007KT P6SM SCT015
KPSM 
46nm S 
260540Z 2606/2706 12010G18KT 2SM -SHRA BR OVC003 FM260900 29008KT 1SM BR OVC003 FM261300 26007KT 6SM BR SCT100 FM261600 25010G18KT P6SM FEW250
NOTAMs
Click for the latest NOTAMs
NOTAMs are issued by the DoD/FAA and will open in a separate window not controlled by AirNav.

 

 
 

Would you like to see your business listed on this page?

 If your business provides an interesting product or service to pilots, flight crews, aircraft, or users of the Meader's Heliport, you should consider listing it here.  To start the listing process, click on the button below
 
Add a business
 

Other Pages about Meader's Heliport

Update a link
 
Copyright © AirNav, LLC. All rights reserved. Privacy Policy  Contact